ADDS METAR Data INFO
IDs: Format: Raw Decoded Include TAF

Data at: 2303 UTC 15 Jul 2018

KEZM 152255Z AUTO 00000KT 10SM -DZ SCT060 BKN100 OVC120 25/21 A3005 RMK AO2 LTG DSNT ALQS T02530207
KEZM 152235Z AUTO 00000KT 10SM -TSRA BKN100 OVC120 25/21 A3006 RMK AO2 LTG DSNT S THRU N T02540206
KEZM 152215Z AUTO 10005KT 10SM -VCTSRA SCT042 SCT065 OVC110 25/20 A3006 RMK AO2 LTG DSNT ALQS T02500201
KEZM 152155Z AUTO 08006KT 10SM TSRA SCT011 BKN065 OVC120 25/20 A3006 RMK AO2 LTG DSNT ALQS T02540198
KEZM 152135Z AUTO 09003KT 10SM TS SCT010 BKN024 OVC030 27/20 A3006 RMK AO2 LTG DSNT ALQS T02650202
KEZM 152115Z AUTO 10008G17KT 10SM TS SCT012 SCT017 BKN022 28/21 A3005 RMK AO2 LTG DSNT ALQS T02800208
KEZM 152055Z AUTO 23004KT 10SM VCTS SCT041 30/20 A3002 RMK AO2 LTG DSNT E AND SE T03000203
KEZM 152035Z AUTO 24009KT 10SM SCT034 BKN042 BKN055 31/19 A3002 RMK AO2 LTG DSNT E THRU W T03130189
KEZM 152015Z AUTO 00000KT 10SM VCTS SCT033 32/17 A3004 RMK AO2 LTG DSNT ALQS T03200171
KEZM 151955Z AUTO 09004KT 10SM SCT100 34/17 A3004 RMK AO2 LTG DSNT E AND W T03350171
KEZM 151935Z AUTO 18003KT 10SM CLR 33/16 A3006 RMK AO2 LTG DSNT SW T03260159
KEZM 151915Z AUTO 00000KT 10SM SCT026 33/17 A3005 RMK AO2 LTG DSNT N AND SW T03250170
KEZM 151855Z AUTO 13003KT 10SM SCT026 BKN090 32/19 A3007 RMK AO2 LTG DSNT SW AND NW T03210190
KEZM 151835Z AUTO 00000KT 10SM SCT090 31/20 A3007 RMK AO2 LTG DSNT S T03110197
KEZM 151815Z AUTO 00000KT 10SM SCT100 SCT120 31/20 A3008 RMK AO2 LTG DSNT SE AND S T03110196
KEZM 151755Z AUTO 00000KT 10SM CLR 30/20 A3008 RMK AO2 LTG DSNT NE S AND W T03030204 10306 20241
KEZM 151735Z AUTO 12004KT 10SM SCT022 SCT033 BKN050 30/22 A3009 RMK AO2 LTG DSNT NE S AND W T02990220
KEZM 151715Z AUTO 00000KT 5SM RA OVC022 28/22 A3010 RMK AO2 LTG DSNT S T02770220
KEZM 151655Z AUTO 24003KT 10SM OVC020 29/20 A3010 RMK AO2 LTG DSNT S T02940201
KEZM 151635Z AUTO 00000KT 10SM BKN020 BKN027 OVC050 30/19 A3011 RMK AO2 T03010194
KEZM 151615Z AUTO 00000KT 10SM BKN018 BKN050 30/20 A3011 RMK AO2 T02990197
KEZM 151555Z AUTO 00000KT 10SM SCT016 BKN055 BKN070 30/20 A3011 RMK AO2 T03010201
KEZM 151535Z AUTO 00000KT 10SM SCT014 BKN060 BKN070 29/20 A3012 RMK AO2 T02860201
KEZM 151515Z AUTO 00000KT 10SM SCT014 OVC065 28/20 A3012 RMK AO2 T02800202
KEZM 151455Z AUTO 00000KT 10SM SCT046 OVC065 28/20 A3012 RMK AO2 T02830203
KEZM 151435Z AUTO 00000KT 10SM OVC055 27/20 A3012 RMK AO2 T02710199
KEZM 151415Z AUTO 00000KT 10SM OVC049 27/20 A3012 RMK AO2 T02650202
KEZM 151355Z AUTO 00000KT 10SM SCT006 OVC049 26/21 A3013 RMK AO2 T02600205
KEZM 151335Z AUTO 00000KT 10SM OVC006 26/21 A3013 RMK AO2 T02560205
KEZM 151315Z AUTO 00000KT 10SM OVC004 25/20 A3012 RMK AO2 T02530204
KEZM 151255Z AUTO 00000KT 10SM OVC004 25/21 A3013 RMK AO2 T02510206
KEZM 151235Z AUTO 00000KT 10SM BKN004 25/21 A3012 RMK AO2 T02470205
KEZM 151215Z AUTO 00000KT 10SM BKN002 25/21 A3012 RMK AO2 T02450205
KEZM 151155Z AUTO 00000KT 7SM OVC002 24/20 A3012 RMK AO2 T02400201 10240 20231
KEZM 151135Z AUTO 00000KT 2SM HZ BKN002 OVC050 24/20 A3011 RMK AO2 VIS 1 1/4V2 1/2 T02390200
KEZM 151115Z AUTO 00000KT 4SM HZ SCT002 SCT050 BKN060 24/20 A3010 RMK AO2 T02360198
KEZM 151055Z AUTO 00000KT 4SM HZ BKN002 BKN060 OVC090 24/20 A3010 RMK AO2 T02350197
KEZM 151035Z AUTO 00000KT 2 1/2SM HZ BKN002 BKN060 OVC090 24/20 A3010 RMK AO2 T02350197
KEZM 151015Z AUTO 00000KT 3/4SM HZ OVC002 24/20 A3010 RMK AO2 T02360197
KEZM 150955Z AUTO 00000KT 1SM HZ OVC002 24/20 A3010 RMK AO2 T02360197
KEZM 150935Z AUTO 00000KT 1/2SM HZ OVC002 24/20 A3010 RMK AO2 T02360197
KEZM 150915Z AUTO 00000KT 1 1/2SM HZ OVC002 24/20 A3009 RMK AO2 T02360197
KEZM 150855Z AUTO 00000KT 1SM HZ OVC002 24/20 A3009 RMK AO2 T02370198
KEZM 150835Z AUTO 00000KT 1/4SM HZ OVC002 24/20 A3009 RMK AO2 T02350196
KEZM 150815Z AUTO 00000KT 1/2SM HZ OVC002 23/19 A3009 RMK AO2 T02320193
KEZM 150755Z AUTO 00000KT 5SM HZ SCT002 24/20 A3008 RMK AO2 T02370198
KEZM 150735Z AUTO 00000KT 7SM BKN002 24/20 A3009 RMK AO2 T02380200
KEZM 150715Z AUTO 00000KT 3SM HZ SCT002 24/20 A3009 RMK AO2 T02370198
KEZM 150655Z AUTO 00000KT 1 3/4SM HZ SCT002 24/20 A3010 RMK AO2 T02360197
KEZM 150635Z AUTO 00000KT 2 1/2SM HZ CLR 24/20 A3009 RMK AO2 T02360197
KEZM 150615Z AUTO 00000KT 1 1/4SM HZ SCT003 24/20 A3010 RMK AO2 T02360196
KEZM 150555Z AUTO 00000KT 7SM SCT002 24/20 A3010 RMK AO2 T02400200 10250 20240 403530232
KEZM 150535Z AUTO 00000KT 7SM BKN002 24/20 A3010 RMK AO2 T02400200
KEZM 150515Z AUTO 00000KT 3/4SM HZ OVC002 24/20 A3010 RMK AO2 T02400200
KEZM 150455Z AUTO 00000KT 1/2SM HZ OVC002 24/20 A3010 RMK AO2 T02400200
KEZM 150435Z AUTO 00000KT 1SM HZ OVC002 24/20 A3011 RMK AO2 T02400200
KEZM 150415Z AUTO 00000KT 5SM HZ CLR 24/20 A3011 RMK AO2 T02420200
KEZM 150355Z AUTO 00000KT 10SM CLR 24/20 A3012 RMK AO2 T02430201
KEZM 150335Z AUTO 00000KT 10SM CLR 24/20 A3012 RMK AO2 T02430201
KEZM 150315Z AUTO 00000KT 10SM CLR 25/20 A3012 RMK AO2 T02450202
KEZM 150255Z AUTO 15003KT 10SM SCT003 SCT095 25/20 A3013 RMK AO2 T02450203
KEZM 150235Z AUTO 14003KT 7SM SCT003 BKN095 25/21 A3013 RMK AO2 T02460205
KEZM 150215Z AUTO 00000KT 10SM SCT003 BKN085 BKN110 25/21 A3013 RMK AO2 LTG DSNT NW T02470205
KEZM 150155Z AUTO 00000KT 10SM -RA BKN085 BKN110 25/21 A3012 RMK AO2 LTG DSNT NW T02470205
KEZM 150135Z AUTO 00000KT 10SM -VCTSDZ SCT085 BKN120 25/20 A3011 RMK AO2 LTG DSNT N AND NW T02450202
KEZM 150115Z AUTO 32006KT 7SM -RA SCT048 SCT050 OVC120 25/20 A3010 RMK AO2 LTG DSNT NW T02450202
KEZM 150055Z AUTO 26006KT 7SM VCTSRA SCT007 BKN050 OVC065 25/20 A3011 RMK AO2 LTG DSNT NW T02450201
KEZM 150035Z AUTO 21004KT 4SM RA SCT009 BKN032 OVC080 25/20 A3012 RMK AO2 LTG DSNT SW THRU NE T02450202
KEZM 150015Z AUTO 19007KT 1 3/4SM +TSRA BKN007 OVC018 25/20 A3012 RMK AO2 VIS 1V5 LTG DSNT ALQS T02480201
KEZM 142355Z AUTO 21004KT 4SM TSRA SCT008 BKN019 OVC036 25/20 A3012 RMK AO2 LTG DSNT ALQS T02500200 10353 20250
KEZM 142335Z AUTO 14008KT 7SM +TSRA SCT008 BKN019 OVC036 25/20 A3011 RMK AO2 LTG DSNT SE THRU NW T02530202
KEZM 142315Z AUTO 20004KT 10SM -VCTSRA BKN018 BKN023 OVC041 27/20 A3009 RMK AO2 LTG DSNT ALQS T02660197
KEZM 142255Z AUTO 24012KT 10SM VCTS BKN041 OVC065 31/18 A3008 RMK AO2 LTG DSNT SE THRU NW T03110183
KEZM 142235Z AUTO 10005KT 10SM SCT043 BKN065 OVC100 33/17 A3006 RMK AO2 LTG DSNT SE THRU W T03310171
KEZM 142215Z AUTO 10004KT 10SM VCTS SCT043 SCT048 BKN080 34/16 A3006 RMK AO2 LTG DSNT SE AND SW T03420155
KEZM 142155Z AUTO 06005KT 10SM SCT043 35/15 A3006 RMK AO2 LTG DSNT SE THRU W T03510149
KEZM 142135Z AUTO 11005KT 10SM SCT041 35/16 A3006 RMK AO2 LTG DSNT S AND SW T03450158
KEZM 142115Z AUTO 04006KT 10SM CLR 35/15 A3005 RMK AO2 LTG DSNT N SE AND NW T03520152
KEZM 142055Z AUTO 09003KT 10SM SCT041 35/15 A3006 RMK AO2 T03480146
KEZM 142035Z AUTO 08004KT 10SM SCT041 35/16 A3007 RMK AO2 LTG DSNT SE AND NW T03470159
KEZM 142015Z AUTO 09007KT 10SM SCT043 34/15 A3007 RMK AO2 T03410152
KEZM 141955Z AUTO 10006G14KT 10SM SCT048 35/16 A3008 RMK AO2 T03480160
KEZM 141935Z AUTO 08005KT 10SM SCT036 BKN048 33/17 A3008 RMK AO2 T03330167
KEZM 141915Z AUTO 09005KT 10SM SCT034 SCT044 33/18 A3010 RMK AO2 T03320175
KEZM 141855Z AUTO 06005KT 10SM SCT034 34/17 A3010 RMK AO2 T03360165
KEZM 141835Z AUTO 00000KT 10SM SCT030 SCT037 SCT044 34/17 A3011 RMK AO2 LTG DSNT S T03420165
KEZM 141815Z AUTO 07007KT 10SM SCT030 BKN039 BKN044 33/18 A3011 RMK AO2 T03250181
KEZM 141755Z AUTO 08004KT 10SM BKN030 OVC039 32/18 A3012 RMK AO2 T03200182 10334 20240
KEZM 141735Z AUTO 00000KT 10SM OVC030 32/18 A3013 RMK AO2 T03240177
KEZM 141715Z AUTO 00000KT 10SM SCT028 SCT033 33/18 A3014 RMK AO2 T03260180
KEZM 141655Z AUTO 08005KT 10SM SCT026 33/18 A3015 RMK AO2 LTG DSNT S T03250181
KEZM 141635Z AUTO 03003KT 10SM SCT026 32/19 A3015 RMK AO2 T03160187
KEZM 141615Z AUTO 00000KT 10SM SCT020 BKN028 31/19 A3015 RMK AO2 T03090192
KEZM 141555Z AUTO 09003KT 10SM BKN020 BKN030 30/20 A3015 RMK AO2 T03040197
KEZM 141535Z AUTO 10004KT 10SM BKN018 31/19 A3016 RMK AO2 T03050194
KEZM 141515Z AUTO 10006KT 10SM CLR 30/19 A3015 RMK AO2 T02990192
KEZM 141455Z AUTO 06003KT 10SM SCT009 SCT095 29/20 A3015 RMK AO2 T02860195
KEZM 141435Z AUTO 05003KT 10SM BKN007 OVC095 28/20 A3015 RMK AO2 T02840198
KEZM 141415Z AUTO 06003KT 10SM OVC007 27/20 A3015 RMK AO2 T02720197
KEZM 141355Z AUTO 06004KT 10SM OVC005 26/20 A3015 RMK AO2 LTG DSNT SW T02640198
KEZM 141335Z AUTO 07006KT 10SM OVC005 26/20 A3015 RMK AO2 T02600198
KEZM 141315Z AUTO 05005KT 10SM OVC005 26/20 A3015 RMK AO2 T02610200
KEZM 141255Z AUTO 07003KT 10SM OVC005 26/20 A3015 RMK AO2 T02550200
KEZM 141235Z AUTO 00000KT 7SM OVC003 25/20 A3015 RMK AO2 T02460199
KEZM 141215Z AUTO 07003KT 5SM HZ OVC003 24/20 A3014 RMK AO2 T02420199
KEZM 141155Z AUTO 00000KT 3SM HZ OVC003 24/20 A3014 RMK AO2 T02390198 10246 20232
KEZM 141135Z AUTO 07003KT 3SM HZ OVC003 24/20 A3013 RMK AO2 LTG DSNT E T02370196
KEZM 141115Z AUTO 09003KT 2 1/2SM HZ OVC003 24/20 A3013 RMK AO2 T02370196